createdAt,value
2022-11-01T00:03:10.735Z,10.82
2022-11-01T00:08:00.841Z,9.57
2022-11-01T00:12:50.952Z,8.05
2022-11-01T00:17:40.566Z,9.52
2022-11-01T00:22:32.948Z,8.85
2022-11-01T00:27:22.551Z,8.55
2022-11-01T00:32:23.903Z,9.10
2022-11-01T00:37:15.451Z,7.97
2022-11-01T00:42:08.015Z,8.20
2022-11-01T00:46:57.834Z,6.93
2022-11-01T00:51:47.547Z,8.93
2022-11-01T00:56:37.299Z,10.52
2022-11-01T01:01:34.670Z,8.52
2022-11-01T01:06:25.981Z,7.32
2022-11-01T01:11:15.959Z,7.63
2022-11-01T01:16:15.428Z,9.05
2022-11-01T01:21:09.137Z,8.68
2022-11-01T01:26:17.378Z,8.23
2022-11-01T01:31:09.614Z,8.73
2022-11-01T01:36:03.026Z,7.32
2022-11-01T01:40:55.290Z,6.90
2022-11-01T01:45:45.633Z,7.47
2022-11-01T01:50:40.889Z,7.70
2022-11-01T01:55:38.824Z,6.88
2022-11-01T02:00:31.403Z,6.60
2022-11-01T02:05:34.701Z,6.27
2022-11-01T02:10:29.114Z,5.50
2022-11-01T02:15:22.612Z,5.57
2022-11-01T02:20:36.309Z,5.28
2022-11-01T02:26:03.018Z,5.57
2022-11-01T02:31:06.360Z,4.88
2022-11-01T02:36:05.598Z,5.05
2022-11-01T02:41:07.583Z,3.17
2022-11-01T02:45:58.092Z,3.10
2022-11-01T02:51:02.604Z,2.00
2022-11-01T02:55:56.761Z,2.58
2022-11-01T03:00:46.620Z,3.85
2022-11-01T03:05:43.775Z,2.40
2022-11-01T03:10:47.978Z,1.20
2022-11-01T03:15:49.911Z,1.27
2022-11-01T03:21:00.394Z,2.13
2022-11-01T03:25:55.381Z,2.03
2022-11-01T03:30:54.155Z,1.10
2022-11-01T03:35:48.236Z,1.73
2022-11-01T03:40:39.873Z,1.30
2022-11-01T03:45:31.050Z,0.70
2022-11-01T03:50:25.331Z,1.00
2022-11-01T03:55:21.744Z,1.00
2022-11-01T04:00:13.163Z,2.60
2022-11-01T04:05:14.102Z,1.90
2022-11-01T04:10:07.211Z,2.83
2022-11-01T04:15:09.379Z,2.27
2022-11-01T04:20:11.480Z,1.75
2022-11-01T04:25:03.378Z,1.90
2022-11-01T04:29:57.805Z,2.85
2022-11-01T04:34:47.611Z,1.77
2022-11-01T04:39:37.380Z,2.25
2022-11-01T04:44:27.085Z,5.20
2022-11-01T04:49:27.769Z,4.40
2022-11-01T04:54:19.882Z,2.40
2022-11-01T04:59:09.752Z,5.07
2022-11-01T05:04:00.161Z,3.75
2022-11-01T05:08:52.598Z,3.22
2022-11-01T05:13:42.419Z,6.25
2022-11-01T05:18:32.161Z,4.00
2022-11-01T05:23:22.082Z,4.85
2022-11-01T05:28:16.288Z,4.35
2022-11-01T05:33:07.974Z,2.63
2022-11-01T05:38:01.783Z,1.63
2022-11-01T05:42:52.043Z,3.85
2022-11-01T05:47:44.688Z,4.07
2022-11-01T05:52:34.475Z,4.97
2022-11-01T05:57:30.912Z,4.63
2022-11-01T06:02:34.123Z,7.05
2022-11-01T06:07:26.447Z,7.15
2022-11-01T10:01:09.065Z,8.70
2022-11-01T10:16:22.213Z,6.55
2022-11-01T10:21:16.740Z,6.45
2022-11-01T10:26:18.108Z,6.47
2022-11-01T10:31:26.200Z,5.47
2022-11-01T10:36:24.081Z,8.68
2022-11-01T10:41:25.620Z,8.00
2022-11-01T10:46:20.890Z,10.97
2022-11-01T10:51:13.252Z,6.65
2022-11-01T10:56:09.372Z,14.82
2022-11-01T11:01:22.275Z,7.00
2022-11-01T11:06:15.550Z,7.88
2022-11-01T11:11:14.476Z,4.28
2022-11-01T11:16:08.852Z,8.85
2022-11-01T11:21:07.332Z,5.90
2022-11-01T11:26:26.339Z,8.30
2022-11-01T11:31:18.666Z,7.60
2022-11-01T11:36:12.000Z,9.32
2022-11-01T11:41:07.754Z,2.88
2022-11-01T11:46:16.219Z,2.13
2022-11-01T11:51:10.655Z,3.22
2022-11-01T11:56:04.601Z,4.82
2022-11-01T12:01:18.056Z,4.72
2022-11-01T12:06:11.593Z,3.88
2022-11-01T12:11:06.295Z,2.03
2022-11-01T12:16:22.305Z,5.80
2022-11-01T12:21:27.302Z,7.75
2022-11-01T12:26:20.770Z,7.15
2022-11-01T12:31:20.861Z,1.42
2022-11-01T12:36:17.047Z,2.38
2022-11-01T12:41:25.442Z,3.85
2022-11-01T12:46:35.216Z,2.70
